sensor_id;sensor_type;location;lat;lon;timestamp;P1;durP1;ratioP1;P2;durP2;ratioP2
67861;SDS011;54665;51.462;6.698;2024-01-15T00:00:34;49.63;;;14.83;;
67861;SDS011;54665;51.462;6.698;2024-01-15T00:02:35;36.57;;;10.27;;
67861;SDS011;54665;51.462;6.698;2024-01-15T00:04:38;44.47;;;13.63;;
67861;SDS011;54665;51.462;6.698;2024-01-15T00:06:39;54.60;;;16.40;;
67861;SDS011;54665;51.462;6.698;2024-01-15T00:08:40;34.10;;;9.90;;
67861;SDS011;54665;51.462;6.698;2024-01-15T00:10:40;34.13;;;11.00;;
67861;SDS011;54665;51.462;6.698;2024-01-15T00:12:40;33.43;;;10.60;;
67861;SDS011;54665;51.462;6.698;2024-01-15T00:14:41;42.77;;;13.47;;
67861;SDS011;54665;51.462;6.698;2024-01-15T00:16:41;36.83;;;11.93;;
67861;SDS011;54665;51.462;6.698;2024-01-15T00:18:41;49.40;;;14.40;;
67861;SDS011;54665;51.462;6.698;2024-01-15T00:20:42;35.75;;;11.40;;
67861;SDS011;54665;51.462;6.698;2024-01-15T00:22:42;44.72;;;13.35;;
67861;SDS011;54665;51.462;6.698;2024-01-15T00:24:42;35.63;;;10.97;;
67861;SDS011;54665;51.462;6.698;2024-01-15T00:26:43;36.60;;;11.57;;
67861;SDS011;54665;51.462;6.698;2024-01-15T00:28:43;39.43;;;12.77;;
67861;SDS011;54665;51.462;6.698;2024-01-15T00:30:43;40.60;;;12.67;;
67861;SDS011;54665;51.462;6.698;2024-01-15T00:32:44;26.53;;;8.43;;
67861;SDS011;54665;51.462;6.698;2024-01-15T00:34:44;42.63;;;12.80;;
67861;SDS011;54665;51.462;6.698;2024-01-15T00:36:44;40.38;;;12.73;;
67861;SDS011;54665;51.462;6.698;2024-01-15T00:38:44;34.80;;;11.87;;
67861;SDS011;54665;51.462;6.698;2024-01-15T00:40:45;39.77;;;12.27;;
67861;SDS011;54665;51.462;6.698;2024-01-15T00:42:45;27.07;;;8.47;;
67861;SDS011;54665;51.462;6.698;2024-01-15T00:44:46;30.90;;;9.70;;
67861;SDS011;54665;51.462;6.698;2024-01-15T00:46:46;36.27;;;11.60;;
67861;SDS011;54665;51.462;6.698;2024-01-15T00:48:46;27.00;;;9.23;;
67861;SDS011;54665;51.462;6.698;2024-01-15T00:50:47;28.50;;;8.43;;
67861;SDS011;54665;51.462;6.698;2024-01-15T00:52:47;33.83;;;10.53;;
67861;SDS011;54665;51.462;6.698;2024-01-15T00:54:47;29.63;;;10.37;;
67861;SDS011;54665;51.462;6.698;2024-01-15T00:56:47;39.30;;;12.77;;
67861;SDS011;54665;51.462;6.698;2024-01-15T00:58:48;33.97;;;11.40;;
67861;SDS011;54665;51.462;6.698;2024-01-15T01:00:48;33.10;;;12.20;;
67861;SDS011;54665;51.462;6.698;2024-01-15T01:02:48;32.60;;;10.53;;
67861;SDS011;54665;51.462;6.698;2024-01-15T01:04:49;42.53;;;11.88;;
67861;SDS011;54665;51.462;6.698;2024-01-15T01:06:49;26.05;;;9.35;;
67861;SDS011;54665;51.462;6.698;2024-01-15T01:08:49;22.07;;;6.83;;
67861;SDS011;54665;51.462;6.698;2024-01-15T01:10:50;36.03;;;12.50;;
67861;SDS011;54665;51.462;6.698;2024-01-15T01:12:50;35.93;;;11.83;;
67861;SDS011;54665;51.462;6.698;2024-01-15T01:14:50;31.13;;;11.07;;
67861;SDS011;54665;51.462;6.698;2024-01-15T01:16:51;36.30;;;11.87;;
67861;SDS011;54665;51.462;6.698;2024-01-15T01:18:51;41.58;;;13.60;;
67861;SDS011;54665;51.462;6.698;2024-01-15T01:20:51;33.45;;;11.05;;
67861;SDS011;54665;51.462;6.698;2024-01-15T01:22:52;40.60;;;12.50;;
67861;SDS011;54665;51.462;6.698;2024-01-15T01:24:52;41.90;;;13.57;;
67861;SDS011;54665;51.462;6.698;2024-01-15T01:26:52;44.33;;;14.57;;
67861;SDS011;54665;51.462;6.698;2024-01-15T01:28:52;25.60;;;8.43;;
67861;SDS011;54665;51.462;6.698;2024-01-15T01:30:53;44.00;;;14.27;;
67861;SDS011;54665;51.462;6.698;2024-01-15T01:32:53;41.83;;;13.93;;
67861;SDS011;54665;51.462;6.698;2024-01-15T01:34:53;29.88;;;10.57;;
67861;SDS011;54665;51.462;6.698;2024-01-15T01:36:54;42.92;;;13.55;;
67861;SDS011;54665;51.462;6.698;2024-01-15T01:38:54;34.17;;;11.30;;
67861;SDS011;54665;51.462;6.698;2024-01-15T01:40:54;27.57;;;10.23;;
67861;SDS011;54665;51.462;6.698;2024-01-15T01:42:54;22.67;;;8.60;;
67861;SDS011;54665;51.462;6.698;2024-01-15T01:44:55;30.00;;;9.77;;
67861;SDS011;54665;51.462;6.698;2024-01-15T01:46:55;37.53;;;11.37;;
67861;SDS011;54665;51.462;6.698;2024-01-15T01:48:57;35.58;;;11.43;;
67861;SDS011;54665;51.462;6.698;2024-01-15T01:50:59;32.13;;;11.13;;
67861;SDS011;54665;51.462;6.698;2024-01-15T01:53:01;27.13;;;9.18;;
67861;SDS011;54665;51.462;6.698;2024-01-15T01:55:02;36.63;;;12.13;;
67861;SDS011;54665;51.462;6.698;2024-01-15T01:57:03;42.17;;;13.45;;
67861;SDS011;54665;51.462;6.698;2024-01-15T01:59:05;34.33;;;12.35;;
67861;SDS011;54665;51.462;6.698;2024-01-15T02:01:09;36.58;;;11.32;;
67861;SDS011;54665;51.462;6.698;2024-01-15T02:03:11;32.17;;;11.07;;
67861;SDS011;54665;51.462;6.698;2024-01-15T02:05:12;35.83;;;10.73;;
67861;SDS011;54665;51.462;6.698;2024-01-15T02:07:13;32.50;;;11.52;;
67861;SDS011;54665;51.462;6.698;2024-01-15T02:09:14;35.13;;;11.47;;
67861;SDS011;54665;51.462;6.698;2024-01-15T02:11:14;28.20;;;8.60;;
67861;SDS011;54665;51.462;6.698;2024-01-15T02:13:15;20.47;;;7.40;;
67861;SDS011;54665;51.462;6.698;2024-01-15T02:15:15;25.93;;;9.27;;
67861;SDS011;54665;51.462;6.698;2024-01-15T02:17:15;31.67;;;10.70;;
67861;SDS011;54665;51.462;6.698;2024-01-15T02:19:16;33.47;;;10.20;;
67861;SDS011;54665;51.462;6.698;2024-01-15T02:21:17;26.95;;;8.32;;
67861;SDS011;54665;51.462;6.698;2024-01-15T02:23:17;29.83;;;9.60;;
67861;SDS011;54665;51.462;6.698;2024-01-15T02:25:18;19.47;;;6.90;;
67861;SDS011;54665;51.462;6.698;2024-01-15T02:27:18;22.00;;;7.25;;
67861;SDS011;54665;51.462;6.698;2024-01-15T02:29:19;31.03;;;10.50;;
67861;SDS011;54665;51.462;6.698;2024-01-15T02:31:20;26.10;;;8.35;;
67861;SDS011;54665;51.462;6.698;2024-01-15T02:33:20;29.37;;;8.80;;
67861;SDS011;54665;51.462;6.698;2024-01-15T02:35:20;21.93;;;7.13;;
67861;SDS011;54665;51.462;6.698;2024-01-15T02:37:21;26.83;;;8.63;;
67861;SDS011;54665;51.462;6.698;2024-01-15T02:39:22;27.50;;;9.15;;
67861;SDS011;54665;51.462;6.698;2024-01-15T02:41:22;31.57;;;9.90;;
67861;SDS011;54665;51.462;6.698;2024-01-15T02:43:22;25.40;;;9.10;;
67861;SDS011;54665;51.462;6.698;2024-01-15T02:45:22;24.53;;;7.67;;
67861;SDS011;54665;51.462;6.698;2024-01-15T02:47:23;26.73;;;8.97;;
67861;SDS011;54665;51.462;6.698;2024-01-15T02:49:23;28.27;;;8.73;;
67861;SDS011;54665;51.462;6.698;2024-01-15T02:51:23;20.47;;;6.57;;
67861;SDS011;54665;51.462;6.698;2024-01-15T02:53:24;16.40;;;5.80;;
67861;SDS011;54665;51.462;6.698;2024-01-15T02:55:24;21.27;;;5.70;;
67861;SDS011;54665;51.462;6.698;2024-01-15T02:57:24;24.23;;;8.23;;
67861;SDS011;54665;51.462;6.698;2024-01-15T02:59:25;23.70;;;8.53;;
67861;SDS011;54665;51.462;6.698;2024-01-15T03:01:25;19.20;;;7.07;;
67861;SDS011;54665;51.462;6.698;2024-01-15T03:03:25;22.90;;;7.87;;
67861;SDS011;54665;51.462;6.698;2024-01-15T03:05:25;24.00;;;7.40;;
67861;SDS011;54665;51.462;6.698;2024-01-15T03:07:27;13.47;;;4.93;;
67861;SDS011;54665;51.462;6.698;2024-01-15T03:09:28;18.20;;;6.05;;
67861;SDS011;54665;51.462;6.698;2024-01-15T03:11:28;17.23;;;5.67;;
67861;SDS011;54665;51.462;6.698;2024-01-15T03:13:29;18.90;;;5.90;;
67861;SDS011;54665;51.462;6.698;2024-01-15T03:15:29;23.73;;;7.68;;
67861;SDS011;54665;51.462;6.698;2024-01-15T03:17:29;17.40;;;5.57;;
67861;SDS011;54665;51.462;6.698;2024-01-15T03:19:29;19.53;;;6.73;;
67861;SDS011;54665;51.462;6.698;2024-01-15T03:21:30;21.90;;;7.33;;
67861;SDS011;54665;51.462;6.698;2024-01-15T03:23:30;20.60;;;6.87;;
67861;SDS011;54665;51.462;6.698;2024-01-15T03:25:30;19.80;;;6.33;;
67861;SDS011;54665;51.462;6.698;2024-01-15T03:27:31;19.43;;;6.43;;
67861;SDS011;54665;51.462;6.698;2024-01-15T03:29:31;15.93;;;5.20;;
67861;SDS011;54665;51.462;6.698;2024-01-15T03:31:31;21.00;;;6.55;;
67861;SDS011;54665;51.462;6.698;2024-01-15T03:33:31;16.90;;;5.47;;
67861;SDS011;54665;51.462;6.698;2024-01-15T03:35:32;16.97;;;6.00;;
67861;SDS011;54665;51.462;6.698;2024-01-15T03:37:32;18.23;;;6.20;;
67861;SDS011;54665;51.462;6.698;2024-01-15T03:39:32;16.77;;;5.27;;
67861;SDS011;54665;51.462;6.698;2024-01-15T03:41:32;17.43;;;5.80;;
67861;SDS011;54665;51.462;6.698;2024-01-15T03:43:33;26.57;;;6.10;;
67861;SDS011;54665;51.462;6.698;2024-01-15T03:45:33;13.53;;;5.57;;
67861;SDS011;54665;51.462;6.698;2024-01-15T03:47:33;17.20;;;6.70;;
67861;SDS011;54665;51.462;6.698;2024-01-15T03:49:34;22.55;;;6.70;;
67861;SDS011;54665;51.462;6.698;2024-01-15T03:51:34;18.57;;;6.47;;
67861;SDS011;54665;51.462;6.698;2024-01-15T03:53:34;15.77;;;5.63;;
67861;SDS011;54665;51.462;6.698;2024-01-15T03:55:35;17.00;;;6.63;;
67861;SDS011;54665;51.462;6.698;2024-01-15T03:57:35;14.53;;;4.83;;
67861;SDS011;54665;51.462;6.698;2024-01-15T03:59:35;18.47;;;6.80;;
67861;SDS011;54665;51.462;6.698;2024-01-15T04:01:35;17.23;;;6.73;;
67861;SDS011;54665;51.462;6.698;2024-01-15T04:03:36;17.43;;;6.07;;
67861;SDS011;54665;51.462;6.698;2024-01-15T04:05:37;21.05;;;7.00;;
67861;SDS011;54665;51.462;6.698;2024-01-15T04:07:38;18.15;;;6.85;;
67861;SDS011;54665;51.462;6.698;2024-01-15T04:09:38;26.57;;;8.07;;
67861;SDS011;54665;51.462;6.698;2024-01-15T04:11:39;17.23;;;6.00;;
67861;SDS011;54665;51.462;6.698;2024-01-15T04:13:39;27.98;;;8.73;;
67861;SDS011;54665;51.462;6.698;2024-01-15T04:15:39;30.37;;;9.90;;
67861;SDS011;54665;51.462;6.698;2024-01-15T04:17:40;25.67;;;9.03;;
67861;SDS011;54665;51.462;6.698;2024-01-15T04:19:40;24.67;;;7.37;;
67861;SDS011;54665;51.462;6.698;2024-01-15T04:21:43;24.73;;;8.27;;
67861;SDS011;54665;51.462;6.698;2024-01-15T04:23:43;24.20;;;8.73;;
67861;SDS011;54665;51.462;6.698;2024-01-15T04:25:43;23.93;;;7.53;;
67861;SDS011;54665;51.462;6.698;2024-01-15T04:27:44;15.90;;;5.63;;
67861;SDS011;54665;51.462;6.698;2024-01-15T04:29:44;23.87;;;8.57;;
67861;SDS011;54665;51.462;6.698;2024-01-15T04:31:44;19.70;;;6.20;;
67861;SDS011;54665;51.462;6.698;2024-01-15T04:33:45;22.70;;;7.60;;
67861;SDS011;54665;51.462;6.698;2024-01-15T04:35:45;24.80;;;8.20;;
67861;SDS011;54665;51.462;6.698;2024-01-15T04:37:45;23.43;;;7.77;;
67861;SDS011;54665;51.462;6.698;2024-01-15T04:39:45;22.60;;;7.68;;
67861;SDS011;54665;51.462;6.698;2024-01-15T04:41:46;14.77;;;5.27;;
67861;SDS011;54665;51.462;6.698;2024-01-15T04:43:46;22.97;;;7.17;;
67861;SDS011;54665;51.462;6.698;2024-01-15T04:45:46;20.17;;;6.40;;
67861;SDS011;54665;51.462;6.698;2024-01-15T04:47:46;19.53;;;7.37;;
67861;SDS011;54665;51.462;6.698;2024-01-15T04:49:47;14.80;;;5.83;;
67861;SDS011;54665;51.462;6.698;2024-01-15T04:51:47;13.87;;;5.17;;
67861;SDS011;54665;51.462;6.698;2024-01-15T04:53:47;17.47;;;6.20;;
67861;SDS011;54665;51.462;6.698;2024-01-15T04:55:48;16.95;;;6.45;;
67861;SDS011;54665;51.462;6.698;2024-01-15T04:57:48;18.85;;;6.03;;
67861;SDS011;54665;51.462;6.698;2024-01-15T04:59:48;19.23;;;5.60;;
67861;SDS011;54665;51.462;6.698;2024-01-15T05:01:49;14.93;;;4.47;;
67861;SDS011;54665;51.462;6.698;2024-01-15T05:03:49;14.73;;;5.53;;
67861;SDS011;54665;51.462;6.698;2024-01-15T05:05:49;13.17;;;5.33;;
67861;SDS011;54665;51.462;6.698;2024-01-15T05:07:50;14.90;;;5.50;;
67861;SDS011;54665;51.462;6.698;2024-01-15T05:09:50;17.47;;;5.37;;
67861;SDS011;54665;51.462;6.698;2024-01-15T05:11:50;20.07;;;7.00;;
67861;SDS011;54665;51.462;6.698;2024-01-15T05:13:51;14.98;;;5.35;;
67861;SDS011;54665;51.462;6.698;2024-01-15T05:15:51;19.80;;;5.83;;
67861;SDS011;54665;51.462;6.698;2024-01-15T05:17:52;19.35;;;6.47;;
67861;SDS011;54665;51.462;6.698;2024-01-15T05:19:52;21.87;;;7.80;;
67861;SDS011;54665;51.462;6.698;2024-01-15T05:21:53;20.57;;;7.03;;
67861;SDS011;54665;51.462;6.698;2024-01-15T05:23:53;20.33;;;7.10;;
67861;SDS011;54665;51.462;6.698;2024-01-15T05:25:53;22.87;;;6.93;;
67861;SDS011;54665;51.462;6.698;2024-01-15T05:27:54;20.65;;;7.20;;
67861;SDS011;54665;51.462;6.698;2024-01-15T05:29:54;12.07;;;4.47;;
67861;SDS011;54665;51.462;6.698;2024-01-15T05:31:54;18.47;;;6.70;;
67861;SDS011;54665;51.462;6.698;2024-01-15T05:33:55;15.03;;;5.90;;
67861;SDS011;54665;51.462;6.698;2024-01-15T05:35:55;20.10;;;6.80;;
67861;SDS011;54665;51.462;6.698;2024-01-15T05:37:55;16.83;;;5.37;;
67861;SDS011;54665;51.462;6.698;2024-01-15T05:39:56;14.23;;;5.47;;
67861;SDS011;54665;51.462;6.698;2024-01-15T05:41:56;17.40;;;6.70;;
67861;SDS011;54665;51.462;6.698;2024-01-15T05:43:56;19.48;;;5.90;;
67861;SDS011;54665;51.462;6.698;2024-01-15T05:45:56;19.23;;;6.50;;
67861;SDS011;54665;51.462;6.698;2024-01-15T05:47:57;13.87;;;4.50;;
67861;SDS011;54665;51.462;6.698;2024-01-15T05:49:57;11.37;;;4.07;;
67861;SDS011;54665;51.462;6.698;2024-01-15T05:51:58;12.03;;;4.67;;
67861;SDS011;54665;51.462;6.698;2024-01-15T05:53:58;14.87;;;5.90;;
67861;SDS011;54665;51.462;6.698;2024-01-15T05:55:58;16.97;;;4.83;;
67861;SDS011;54665;51.462;6.698;2024-01-15T05:57:58;14.38;;;4.30;;
67861;SDS011;54665;51.462;6.698;2024-01-15T05:59:59;15.37;;;5.60;;
67861;SDS011;54665;51.462;6.698;2024-01-15T06:02:00;10.50;;;4.20;;
67861;SDS011;54665;51.462;6.698;2024-01-15T06:04:00;17.60;;;5.13;;
67861;SDS011;54665;51.462;6.698;2024-01-15T06:06:00;15.67;;;4.77;;
67861;SDS011;54665;51.462;6.698;2024-01-15T06:08:00;14.40;;;4.90;;
67861;SDS011;54665;51.462;6.698;2024-01-15T06:10:01;14.00;;;4.73;;
67861;SDS011;54665;51.462;6.698;2024-01-15T06:12:01;13.60;;;4.30;;
67861;SDS011;54665;51.462;6.698;2024-01-15T06:14:01;18.27;;;5.20;;
67861;SDS011;54665;51.462;6.698;2024-01-15T06:16:02;10.47;;;4.30;;
67861;SDS011;54665;51.462;6.698;2024-01-15T06:18:02;12.97;;;4.20;;
67861;SDS011;54665;51.462;6.698;2024-01-15T06:20:03;14.40;;;4.40;;
67861;SDS011;54665;51.462;6.698;2024-01-15T06:22:03;14.23;;;3.73;;
67861;SDS011;54665;51.462;6.698;2024-01-15T06:24:03;10.97;;;3.97;;
67861;SDS011;54665;51.462;6.698;2024-01-15T06:26:04;9.10;;;2.38;;
67861;SDS011;54665;51.462;6.698;2024-01-15T06:28:05;11.03;;;2.97;;
67861;SDS011;54665;51.462;6.698;2024-01-15T06:30:05;10.68;;;2.72;;
67861;SDS011;54665;51.462;6.698;2024-01-15T06:32:06;11.50;;;2.85;;
67861;SDS011;54665;51.462;6.698;2024-01-15T06:34:06;4.40;;;1.87;;
67861;SDS011;54665;51.462;6.698;2024-01-15T06:36:07;5.13;;;1.63;;
67861;SDS011;54665;51.462;6.698;2024-01-15T06:38:07;6.35;;;1.83;;
67861;SDS011;54665;51.462;6.698;2024-01-15T06:40:07;7.25;;;2.10;;
67861;SDS011;54665;51.462;6.698;2024-01-15T06:42:08;6.07;;;1.80;;
67861;SDS011;54665;51.462;6.698;2024-01-15T06:44:12;9.80;;;2.63;;
67861;SDS011;54665;51.462;6.698;2024-01-15T06:46:12;5.90;;;2.03;;
67861;SDS011;54665;51.462;6.698;2024-01-15T06:48:13;7.67;;;2.17;;
67861;SDS011;54665;51.462;6.698;2024-01-15T06:50:13;3.93;;;1.43;;
67861;SDS011;54665;51.462;6.698;2024-01-15T06:52:13;3.87;;;1.47;;
67861;SDS011;54665;51.462;6.698;2024-01-15T06:54:13;5.68;;;1.58;;
67861;SDS011;54665;51.462;6.698;2024-01-15T06:56:14;5.00;;;1.43;;
67861;SDS011;54665;51.462;6.698;2024-01-15T06:58:14;4.80;;;1.73;;
67861;SDS011;54665;51.462;6.698;2024-01-15T07:00:15;5.00;;;1.20;;
67861;SDS011;54665;51.462;6.698;2024-01-15T07:02:16;4.35;;;1.27;;
67861;SDS011;54665;51.462;6.698;2024-01-15T07:04:16;5.17;;;1.43;;
67861;SDS011;54665;51.462;6.698;2024-01-15T07:06:17;4.77;;;1.90;;
67861;SDS011;54665;51.462;6.698;2024-01-15T07:08:17;11.27;;;2.03;;
67861;SDS011;54665;51.462;6.698;2024-01-15T07:10:17;4.67;;;1.87;;
67861;SDS011;54665;51.462;6.698;2024-01-15T07:12:17;7.27;;;2.10;;
67861;SDS011;54665;51.462;6.698;2024-01-15T07:14:18;6.35;;;1.55;;
67861;SDS011;54665;51.462;6.698;2024-01-15T07:16:18;4.90;;;1.70;;
67861;SDS011;54665;51.462;6.698;2024-01-15T07:18:18;6.43;;;2.00;;
67861;SDS011;54665;51.462;6.698;2024-01-15T07:20:19;6.53;;;1.73;;
67861;SDS011;54665;51.462;6.698;2024-01-15T07:22:19;2.83;;;1.13;;
67861;SDS011;54665;51.462;6.698;2024-01-15T07:24:19;6.13;;;2.17;;
67861;SDS011;54665;51.462;6.698;2024-01-15T07:26:20;6.37;;;2.03;;
67861;SDS011;54665;51.462;6.698;2024-01-15T07:28:20;9.40;;;2.40;;
67861;SDS011;54665;51.462;6.698;2024-01-15T07:30:20;7.87;;;2.50;;
67861;SDS011;54665;51.462;6.698;2024-01-15T07:32:20;9.30;;;2.45;;
67861;SDS011;54665;51.462;6.698;2024-01-15T07:34:21;7.45;;;2.10;;
67861;SDS011;54665;51.462;6.698;2024-01-15T07:36:21;5.77;;;2.17;;
67861;SDS011;54665;51.462;6.698;2024-01-15T07:38:21;6.90;;;2.70;;
67861;SDS011;54665;51.462;6.698;2024-01-15T07:40:22;9.97;;;3.17;;
67861;SDS011;54665;51.462;6.698;2024-01-15T07:42:22;12.67;;;3.63;;
67861;SDS011;54665;51.462;6.698;2024-01-15T07:44:22;11.80;;;4.10;;
67861;SDS011;54665;51.462;6.698;2024-01-15T07:46:22;12.03;;;3.43;;
67861;SDS011;54665;51.462;6.698;2024-01-15T07:48:23;15.83;;;5.50;;
67861;SDS011;54665;51.462;6.698;2024-01-15T07:50:23;18.97;;;6.70;;
67861;SDS011;54665;51.462;6.698;2024-01-15T07:52:23;16.83;;;5.97;;
67861;SDS011;54665;51.462;6.698;2024-01-15T07:54:24;16.92;;;5.18;;
67861;SDS011;54665;51.462;6.698;2024-01-15T07:56:24;14.10;;;4.97;;
67861;SDS011;54665;51.462;6.698;2024-01-15T07:58:24;20.50;;;7.20;;
67861;SDS011;54665;51.462;6.698;2024-01-15T08:00:25;19.07;;;7.03;;
67861;SDS011;54665;51.462;6.698;2024-01-15T08:02:25;14.93;;;5.77;;
67861;SDS011;54665;51.462;6.698;2024-01-15T08:04:25;18.60;;;7.03;;
67861;SDS011;54665;51.462;6.698;2024-01-15T08:06:26;22.40;;;8.00;;
67861;SDS011;54665;51.462;6.698;2024-01-15T08:08:26;17.57;;;6.10;;
67861;SDS011;54665;51.462;6.698;2024-01-15T08:10:26;21.10;;;8.30;;
67861;SDS011;54665;51.462;6.698;2024-01-15T08:12:27;23.50;;;8.20;;
67861;SDS011;54665;51.462;6.698;2024-01-15T08:14:27;20.50;;;7.60;;
67861;SDS011;54665;51.462;6.698;2024-01-15T08:16:27;26.60;;;8.97;;
67861;SDS011;54665;51.462;6.698;2024-01-15T08:18:28;17.83;;;6.43;;
67861;SDS011;54665;51.462;6.698;2024-01-15T08:20:28;16.33;;;5.95;;
67861;SDS011;54665;51.462;6.698;2024-01-15T08:22:28;23.70;;;8.60;;
67861;SDS011;54665;51.462;6.698;2024-01-15T08:24:28;19.63;;;7.53;;
67861;SDS011;54665;51.462;6.698;2024-01-15T08:26:29;23.63;;;9.27;;
67861;SDS011;54665;51.462;6.698;2024-01-15T08:28:29;23.25;;;8.65;;
67861;SDS011;54665;51.462;6.698;2024-01-15T08:30:30;24.05;;;8.60;;
67861;SDS011;54665;51.462;6.698;2024-01-15T08:32:30;26.87;;;9.80;;
67861;SDS011;54665;51.462;6.698;2024-01-15T08:34:30;20.33;;;7.10;;
67861;SDS011;54665;51.462;6.698;2024-01-15T08:36:31;19.10;;;7.23;;
67861;SDS011;54665;51.462;6.698;2024-01-15T08:38:31;28.63;;;9.77;;
67861;SDS011;54665;51.462;6.698;2024-01-15T08:40:32;21.83;;;8.07;;
67861;SDS011;54665;51.462;6.698;2024-01-15T08:42:32;24.17;;;8.95;;
67861;SDS011;54665;51.462;6.698;2024-01-15T08:44:32;20.02;;;6.85;;
67861;SDS011;54665;51.462;6.698;2024-01-15T08:46:32;17.00;;;6.80;;
67861;SDS011;54665;51.462;6.698;2024-01-15T08:48:33;21.50;;;8.07;;
67861;SDS011;54665;51.462;6.698;2024-01-15T08:50:33;21.00;;;7.30;;
67861;SDS011;54665;51.462;6.698;2024-01-15T08:52:33;23.80;;;8.23;;
67861;SDS011;54665;51.462;6.698;2024-01-15T08:54:34;18.60;;;7.27;;
67861;SDS011;54665;51.462;6.698;2024-01-15T08:56:34;16.05;;;6.18;;
67861;SDS011;54665;51.462;6.698;2024-01-15T08:58:34;21.92;;;8.00;;
67861;SDS011;54665;51.462;6.698;2024-01-15T09:00:35;20.40;;;7.63;;
67861;SDS011;54665;51.462;6.698;2024-01-15T09:02:35;21.00;;;7.53;;
67861;SDS011;54665;51.462;6.698;2024-01-15T09:04:36;10.80;;;4.43;;
67861;SDS011;54665;51.462;6.698;2024-01-15T09:06:36;18.73;;;6.67;;
67861;SDS011;54665;51.462;6.698;2024-01-15T09:08:36;19.30;;;6.83;;
67861;SDS011;54665;51.462;6.698;2024-01-15T09:10:36;18.70;;;6.03;;
67861;SDS011;54665;51.462;6.698;2024-01-15T09:12:37;10.13;;;3.93;;
67861;SDS011;54665;51.462;6.698;2024-01-15T09:14:37;20.70;;;7.43;;
67861;SDS011;54665;51.462;6.698;2024-01-15T09:16:37;19.40;;;6.80;;
67861;SDS011;54665;51.462;6.698;2024-01-15T09:18:38;16.40;;;6.40;;
67861;SDS011;54665;51.462;6.698;2024-01-15T09:20:38;16.73;;;6.53;;
67861;SDS011;54665;51.462;6.698;2024-01-15T09:22:38;15.83;;;5.80;;
67861;SDS011;54665;51.462;6.698;2024-01-15T09:24:40;14.73;;;5.40;;
67861;SDS011;54665;51.462;6.698;2024-01-15T09:26:40;14.10;;;5.65;;
67861;SDS011;54665;51.462;6.698;2024-01-15T09:28:41;15.17;;;5.07;;
67861;SDS011;54665;51.462;6.698;2024-01-15T09:30:41;13.00;;;4.68;;
67861;SDS011;54665;51.462;6.698;2024-01-15T09:32:42;12.53;;;4.60;;
67861;SDS011;54665;51.462;6.698;2024-01-15T09:34:42;8.90;;;3.60;;
67861;SDS011;54665;51.462;6.698;2024-01-15T09:36:43;11.47;;;4.67;;
67861;SDS011;54665;51.462;6.698;2024-01-15T09:38:43;12.27;;;4.43;;
67861;SDS011;54665;51.462;6.698;2024-01-15T09:40:43;9.85;;;3.63;;
67861;SDS011;54665;51.462;6.698;2024-01-15T09:42:45;8.05;;;3.58;;
67861;SDS011;54665;51.462;6.698;2024-01-15T09:44:46;8.18;;;3.13;;
67861;SDS011;54665;51.462;6.698;2024-01-15T09:46:46;9.77;;;3.63;;
67861;SDS011;54665;51.462;6.698;2024-01-15T09:48:47;11.13;;;3.40;;
67861;SDS011;54665;51.462;6.698;2024-01-15T09:50:47;9.17;;;3.30;;
67861;SDS011;54665;51.462;6.698;2024-01-15T09:52:48;9.10;;;3.13;;
67861;SDS011;54665;51.462;6.698;2024-01-15T09:54:49;8.80;;;3.60;;
67861;SDS011;54665;51.462;6.698;2024-01-15T09:56:50;6.68;;;2.63;;
67861;SDS011;54665;51.462;6.698;2024-01-15T09:58:50;6.30;;;2.70;;
67861;SDS011;54665;51.462;6.698;2024-01-15T10:00:51;8.90;;;3.13;;
67861;SDS011;54665;51.462;6.698;2024-01-15T10:02:52;8.93;;;3.35;;
67861;SDS011;54665;51.462;6.698;2024-01-15T10:04:52;8.00;;;3.20;;
67861;SDS011;54665;51.462;6.698;2024-01-15T10:06:52;9.30;;;3.40;;
67861;SDS011;54665;51.462;6.698;2024-01-15T10:08:55;8.43;;;2.97;;
67861;SDS011;54665;51.462;6.698;2024-01-15T10:10:56;7.15;;;2.72;;
67861;SDS011;54665;51.462;6.698;2024-01-15T10:12:58;7.33;;;2.57;;
67861;SDS011;54665;51.462;6.698;2024-01-15T10:14:58;8.48;;;2.85;;
67861;SDS011;54665;51.462;6.698;2024-01-15T10:16:59;9.00;;;2.97;;
67861;SDS011;54665;51.462;6.698;2024-01-15T10:18:59;7.87;;;2.83;;
67861;SDS011;54665;51.462;6.698;2024-01-15T10:20:59;6.80;;;2.80;;
67861;SDS011;54665;51.462;6.698;2024-01-15T10:23:00;6.87;;;2.70;;
67861;SDS011;54665;51.462;6.698;2024-01-15T10:25:01;6.60;;;2.50;;
67861;SDS011;54665;51.462;6.698;2024-01-15T10:27:05;6.70;;;2.35;;
67861;SDS011;54665;51.462;6.698;2024-01-15T10:29:09;4.97;;;1.67;;
67861;SDS011;54665;51.462;6.698;2024-01-15T10:31:09;6.60;;;2.53;;
67861;SDS011;54665;51.462;6.698;2024-01-15T10:33:09;6.93;;;2.57;;
67861;SDS011;54665;51.462;6.698;2024-01-15T10:35:09;6.70;;;2.60;;
67861;SDS011;54665;51.462;6.698;2024-01-15T10:37:10;6.28;;;2.47;;
67861;SDS011;54665;51.462;6.698;2024-01-15T10:39:13;6.57;;;2.00;;
67861;SDS011;54665;51.462;6.698;2024-01-15T10:41:13;6.50;;;2.40;;
67861;SDS011;54665;51.462;6.698;2024-01-15T10:43:14;4.73;;;1.87;;
67861;SDS011;54665;51.462;6.698;2024-01-15T10:45:14;7.13;;;2.47;;
67861;SDS011;54665;51.462;6.698;2024-01-15T10:47:14;5.63;;;2.13;;
67861;SDS011;54665;51.462;6.698;2024-01-15T10:49:15;8.85;;;2.97;;
67861;SDS011;54665;51.462;6.698;2024-01-15T10:51:16;7.30;;;2.80;;
67861;SDS011;54665;51.462;6.698;2024-01-15T10:53:17;6.93;;;2.65;;
67861;SDS011;54665;51.462;6.698;2024-01-15T10:55:17;8.53;;;3.30;;
67861;SDS011;54665;51.462;6.698;2024-01-15T10:57:18;6.13;;;2.60;;
67861;SDS011;54665;51.462;6.698;2024-01-15T10:59:21;9.20;;;3.25;;
67861;SDS011;54665;51.462;6.698;2024-01-15T11:01:21;6.55;;;2.50;;
67861;SDS011;54665;51.462;6.698;2024-01-15T11:03:22;10.17;;;3.07;;
67861;SDS011;54665;51.462;6.698;2024-01-15T11:05:23;9.82;;;3.40;;
67861;SDS011;54665;51.462;6.698;2024-01-15T11:07:23;5.93;;;2.57;;
67861;SDS011;54665;51.462;6.698;2024-01-15T11:09:24;5.90;;;2.30;;
67861;SDS011;54665;51.462;6.698;2024-01-15T11:11:24;8.45;;;3.15;;
67861;SDS011;54665;51.462;6.698;2024-01-15T11:15:31;10.18;;;3.28;;
67861;SDS011;54665;51.462;6.698;2024-01-15T11:17:57;9.03;;;3.27;;
67861;SDS011;54665;51.462;6.698;2024-01-15T11:19:58;8.23;;;3.08;;
67861;SDS011;54665;51.462;6.698;2024-01-15T11:21:59;8.15;;;3.28;;
67861;SDS011;54665;51.462;6.698;2024-01-15T11:24:00;7.30;;;2.67;;
67861;SDS011;54665;51.462;6.698;2024-01-15T11:26:01;6.37;;;2.47;;
67861;SDS011;54665;51.462;6.698;2024-01-15T11:28:01;10.85;;;3.90;;
67861;SDS011;54665;51.462;6.698;2024-01-15T11:30:06;8.75;;;2.97;;
67861;SDS011;54665;51.462;6.698;2024-01-15T11:32:08;7.78;;;2.72;;
67861;SDS011;54665;51.462;6.698;2024-01-15T11:34:09;12.27;;;3.33;;
67861;SDS011;54665;51.462;6.698;2024-01-15T11:36:10;7.38;;;3.03;;
67861;SDS011;54665;51.462;6.698;2024-01-15T11:38:11;6.40;;;2.33;;
67861;SDS011;54665;51.462;6.698;2024-01-15T11:40:11;7.40;;;2.60;;
67861;SDS011;54665;51.462;6.698;2024-01-15T11:42:11;6.83;;;2.57;;
67861;SDS011;54665;51.462;6.698;2024-01-15T11:44:12;6.65;;;2.22;;
67861;SDS011;54665;51.462;6.698;2024-01-15T11:46:12;8.10;;;2.87;;
67861;SDS011;54665;51.462;6.698;2024-01-15T11:48:13;5.00;;;1.70;;
67861;SDS011;54665;51.462;6.698;2024-01-15T11:50:14;7.60;;;2.20;;
67861;SDS011;54665;51.462;6.698;2024-01-15T11:52:16;7.73;;;2.33;;
67861;SDS011;54665;51.462;6.698;2024-01-15T11:54:17;7.00;;;2.60;;
67861;SDS011;54665;51.462;6.698;2024-01-15T11:56:18;9.87;;;2.43;;
67861;SDS011;54665;51.462;6.698;2024-01-15T11:58:22;6.72;;;2.10;;